Time;durP1;ratioP1;P1;durP2;ratioP2;P2;SDS_P1;SDS_P2;PMS_P1;PMS_P2;Temp;Humidity;BMP_temperature;BMP_pressure;BME280_temperature;BME280_humidity;BME280_pressure;Samples;Min_cycle;Max_cycle;Signal;HPM_P1;HPM_P2
2022/12/30 00:01:11;;;;;;;1.87;0.73;;;11.80;1.00;;;;;;5047496;28;20501;-56
2022/12/30 00:03:37;;;;;;;4.27;1.00;;;11.80;1.00;;;;;;5039006;28;20419;-57
2022/12/30 00:06:04;;;;;;;3.23;1.00;;;11.90;1.00;;;;;;5043670;28;20785;-55
2022/12/30 00:08:45;;;;;;;3.60;1.13;;;12.00;1.00;;;;;;5049414;28;20461;-57
2022/12/30 00:11:40;;;;;;;2.93;1.10;;;11.90;1.00;;;;;;5045281;28;20480;-55
2022/12/30 00:34:16;;;;;;;1.63;0.97;;;11.70;1.00;;;;;;5040704;28;20977;-56
2022/12/30 00:36:42;;;;;;;2.80;0.90;;;11.50;1.00;;;;;;5038356;28;20483;-57
2022/12/30 00:39:08;;;;;;;2.53;0.80;;;11.70;1.00;;;;;;5045575;28;20537;-57
2022/12/30 00:44:17;;;;;;;2.97;1.07;;;12.00;1.00;;;;;;5048305;28;20480;-57
2022/12/30 00:46:44;;;;;;;2.60;0.90;;;12.00;1.00;;;;;;5045440;28;20476;-58
2022/12/30 00:57:23;;;;;;;3.30;1.10;;;11.90;1.00;;;;;;5043794;28;20782;-56
2022/12/30 00:59:49;;;;;;;5.70;1.17;;;11.90;1.00;;;;;;5046136;28;20457;-56
2022/12/30 01:02:14;;;;;;;4.30;1.00;;;11.80;1.00;;;;;;5046847;28;20214;-57
2022/12/30 01:04:40;;;;;;;3.27;1.70;;;11.80;1.00;;;;;;5045694;28;20317;-56
2022/12/30 01:07:05;;;;;;;7.30;1.03;;;11.90;1.00;;;;;;5047163;28;20193;-58
2022/12/30 01:09:34;;;;;;;5.00;1.20;;;11.90;1.00;;;;;;5046469;28;20662;-57
2022/12/30 01:12:09;;;;;;;6.30;1.47;;;11.80;1.00;;;;;;5046782;28;20864;-57
2022/12/30 01:14:43;;;;;;;2.60;1.20;;;11.80;1.00;;;;;;5048188;28;20535;-56
2022/12/30 01:17:11;;;;;;;4.17;1.30;;;11.70;1.00;;;;;;5048783;28;20854;-56
2022/12/30 01:19:37;;;;;;;2.67;1.10;;;11.60;1.00;;;;;;5046572;28;20990;-58
2022/12/30 01:22:04;;;;;;;3.17;0.80;;;11.60;1.00;;;;;;5042528;28;20426;-57
2022/12/30 01:24:30;;;;;;;3.67;1.00;;;11.50;1.00;;;;;;5045244;28;20976;-55
2022/12/30 01:26:56;;;;;;;1.70;1.00;;;11.70;1.00;;;;;;5047684;28;20443;-58
2022/12/30 01:29:28;;;;;;;2.27;1.00;;;11.60;1.00;;;;;;5044205;28;20191;-56
2022/12/30 01:31:58;;;;;;;3.37;1.10;;;11.80;1.00;;;;;;5044220;28;20675;-57
2022/12/30 01:34:24;;;;;;;5.43;1.10;;;11.70;1.00;;;;;;5046973;28;20484;-56
2022/12/30 01:36:51;;;;;;;3.00;1.20;;;11.60;1.00;;;;;;5044021;28;20454;-57
2022/12/30 01:39:16;;;;;;;3.13;1.13;;;11.60;1.00;;;;;;5043724;28;20428;-57
2022/12/30 01:41:42;;;;;;;5.33;1.20;;;11.60;1.00;;;;;;5047358;28;20851;-57
2022/12/30 01:44:45;;;;;;;2.33;1.00;;;11.70;1.00;;;;;;5050007;28;20223;-56
2022/12/30 01:47:14;;;;;;;2.10;1.07;;;11.70;1.00;;;;;;5044736;28;20229;-57
2022/12/30 01:49:45;;;;;;;3.17;0.93;;;11.70;1.00;;;;;;5044327;28;20804;-57
2022/12/30 01:52:14;;;;;;;2.20;0.83;;;11.70;1.00;;;;;;5047904;28;20901;-56
2022/12/30 01:54:40;;;;;;;2.37;1.57;;;11.70;1.00;;;;;;5044652;28;20454;-57
2022/12/30 01:57:07;;;;;;;5.03;1.13;;;11.60;1.00;;;;;;5041249;28;20449;-56
2022/12/30 01:59:34;;;;;;;3.97;0.93;;;11.60;1.00;;;;;;5045158;28;20196;-57
2022/12/30 02:02:01;;;;;;;3.00;1.20;;;11.50;1.00;;;;;;5047712;28;20943;-57
2022/12/30 02:04:28;;;;;;;2.37;1.20;;;11.60;1.00;;;;;;5045776;28;20445;-57
2022/12/30 02:06:56;;;;;;;2.17;1.30;;;11.60;1.00;;;;;;5047086;28;20461;-56
2022/12/30 02:09:22;;;;;;;1.60;0.93;;;11.60;1.00;;;;;;5046961;28;20446;-56
2022/12/30 02:11:48;;;;;;;3.80;1.07;;;11.60;1.00;;;;;;5048053;28;20440;-57
2022/12/30 02:14:15;;;;;;;4.23;1.30;;;11.60;1.00;;;;;;5044737;28;20446;-57
2022/12/30 02:17:04;;;;;;;3.10;1.33;;;11.60;1.00;;;;;;5039949;28;20456;-57
2022/12/30 02:20:03;;;;;;;6.77;0.93;;;11.50;1.00;;;;;;5042389;28;20778;-57
2022/12/30 02:22:44;;;;;;;4.17;1.27;;;11.50;1.00;;;;;;5043150;28;20464;-57
2022/12/30 02:25:46;;;;;;;3.30;1.20;;;11.50;1.00;;;;;;5038243;28;20510;-57
2022/12/30 02:28:35;;;;;;;3.37;1.10;;;11.50;1.00;;;;;;5037087;28;20472;-57
2022/12/30 02:31:09;;;;;;;4.33;1.10;;;11.40;1.00;;;;;;5028122;28;20470;-57
2022/12/30 02:33:55;;;;;;;2.87;0.83;;;11.40;1.00;;;;;;5039284;28;20456;-57
2022/12/30 02:36:42;;;;;;;7.07;1.03;;;11.60;1.00;;;;;;5024373;28;20454;-56
2022/12/30 02:39:14;;;;;;;5.87;1.50;;;11.60;1.00;;;;;;5041036;28;20540;-56
2022/12/30 02:44:50;;;;;;;3.23;1.10;;;11.60;1.00;;;;;;5037125;28;20458;-56
2022/12/30 02:47:38;;;;;;;3.37;0.90;;;11.50;1.00;;;;;;5034691;28;20527;-56
2022/12/30 02:52:56;;;;;;;2.93;1.13;;;11.50;1.00;;;;;;5038259;28;20484;-57
2022/12/30 02:55:22;;;;;;;2.77;1.30;;;11.50;1.00;;;;;;5040846;28;20449;-56
2022/12/30 02:57:48;;;;;;;2.50;1.03;;;11.50;1.00;;;;;;5044531;28;20442;-57
2022/12/30 03:07:00;;;;;;;3.00;1.60;;;11.40;1.00;;;;;;5046272;28;20440;-57
2022/12/30 03:09:32;;;;;;;5.27;1.07;;;11.30;1.00;;;;;;5041719;28;20540;-56
2022/12/30 03:12:03;;;;;;;4.10;1.10;;;11.30;1.00;;;;;;5046137;28;20446;-57
2022/12/30 03:14:35;;;;;;;1.57;1.07;;;11.40;1.00;;;;;;5045730;28;20989;-56
2022/12/30 03:17:08;;;;;;;3.40;1.47;;;11.30;1.00;;;;;;5044717;28;20436;-57
2022/12/30 03:19:39;;;;;;;3.20;1.10;;;11.30;1.00;;;;;;5047129;28;20495;-56
2022/12/30 03:27:03;;;;;;;2.80;1.37;;;11.30;1.00;;;;;;5045130;28;20423;-56
2022/12/30 03:27:44;;;;;;;3.10;1.20;;;11.20;1.00;;;;;;5040122;28;20984;-57
2022/12/30 03:30:10;;;;;;;1.90;0.90;;;11.20;1.00;;;;;;5043403;28;20461;-56
2022/12/30 03:32:36;;;;;;;2.00;0.83;;;11.20;1.00;;;;;;5044202;28;20484;-56
2022/12/30 03:35:02;;;;;;;5.10;1.43;;;11.20;1.00;;;;;;5046114;28;20526;-57
2022/12/30 03:37:47;;;;;;;7.50;1.70;;;11.00;1.00;;;;;;5045899;28;20187;-56
2022/12/30 03:40:34;;;;;;;6.47;1.87;;;10.90;1.00;;;;;;5046575;28;20570;-55
2022/12/30 03:43:01;;;;;;;1.87;1.20;;;11.00;1.00;;;;;;5053078;28;20764;-56
2022/12/30 03:45:27;;;;;;;2.83;1.10;;;11.00;1.00;;;;;;5049865;28;20953;-56
2022/12/30 03:47:53;;;;;;;4.70;1.50;;;11.10;1.00;;;;;;5049532;28;20530;-57
2022/12/30 03:50:19;;;;;;;4.00;1.20;;;11.20;1.00;;;;;;5049090;28;20479;-57
2022/12/30 03:52:44;;;;;;;3.23;1.10;;;11.20;1.00;;;;;;5048369;28;20185;-57
2022/12/30 03:55:10;;;;;;;1.40;1.00;;;11.10;1.00;;;;;;5045557;28;20195;-57
2022/12/30 03:57:36;;;;;;;3.70;1.53;;;11.00;1.00;;;;;;5045354;28;20942;-58
2022/12/30 04:00:04;;;;;;;4.07;1.33;;;11.10;1.00;;;;;;5047422;28;20183;-58
2022/12/30 04:02:31;;;;;;;1.57;1.03;;;11.20;1.00;;;;;;5048534;28;20513;-57
2022/12/30 04:04:57;;;;;;;2.40;1.10;;;11.30;1.00;;;;;;5047879;28;20451;-56
2022/12/30 04:07:22;;;;;;;5.23;1.67;;;11.30;1.00;;;;;;5052243;28;20423;-57
2022/12/30 04:09:48;;;;;;;4.20;1.20;;;11.30;1.00;;;;;;5045899;28;20207;-56
2022/12/30 04:12:14;;;;;;;3.60;1.30;;;11.20;1.00;;;;;;5046821;28;20687;-56
2022/12/30 04:14:39;;;;;;;1.90;1.13;;;11.30;1.00;;;;;;5042413;28;20186;-57
2022/12/30 04:17:05;;;;;;;2.77;0.80;;;11.30;1.00;;;;;;5047705;28;20179;-56
2022/12/30 04:19:30;;;;;;;2.23;1.27;;;11.30;1.00;;;;;;5049375;28;20255;-56
2022/12/30 04:21:56;;;;;;;5.77;1.23;;;11.40;1.00;;;;;;5046319;28;20262;-56
2022/12/30 04:24:21;;;;;;;2.43;1.23;;;11.40;1.00;;;;;;5048279;28;20570;-56
2022/12/30 04:26:47;;;;;;;5.03;1.00;;;11.40;1.00;;;;;;5049429;28;20317;-55
2022/12/30 04:29:13;;;;;;;3.70;1.20;;;11.40;1.00;;;;;;5047264;28;20195;-57
2022/12/30 04:31:39;;;;;;;2.10;1.10;;;11.50;1.00;;;;;;5048057;28;20213;-57
2022/12/30 04:34:04;;;;;;;4.03;1.70;;;11.40;1.00;;;;;;5040900;28;20237;-56
2022/12/30 04:36:30;;;;;;;6.00;1.10;;;11.40;1.00;;;;;;5043781;28;20702;-56
2022/12/30 04:38:55;;;;;;;6.60;1.53;;;11.40;1.00;;;;;;5043399;28;20199;-56
2022/12/30 04:41:21;;;;;;;2.90;1.13;;;11.40;1.00;;;;;;5044431;28;20223;-56
2022/12/30 04:43:48;;;;;;;2.07;1.00;;;11.40;1.00;;;;;;5047758;28;20526;-56
2022/12/30 04:46:13;;;;;;;3.53;1.33;;;11.50;1.00;;;;;;5041775;28;21030;-57
2022/12/30 04:48:39;;;;;;;2.90;1.13;;;11.50;1.00;;;;;;5048296;28;20512;-57
2022/12/30 04:51:06;;;;;;;4.57;1.17;;;11.50;1.00;;;;;;5047769;28;20511;-55
2022/12/30 04:53:31;;;;;;;2.47;1.53;;;11.50;1.00;;;;;;5048197;28;20232;-57
2022/12/30 04:55:57;;;;;;;1.80;0.97;;;11.40;1.00;;;;;;5045562;28;20477;-57
2022/12/30 04:58:24;;;;;;;1.67;1.07;;;11.50;1.00;;;;;;5048248;28;20206;-57
2022/12/30 05:00:51;;;;;;;4.40;1.20;;;11.50;1.00;;;;;;5049293;28;20465;-56
2022/12/30 05:03:17;;;;;;;5.20;1.43;;;11.50;1.00;;;;;;5050272;28;20420;-59
2022/12/30 05:05:43;;;;;;;5.00;1.20;;;11.50;1.00;;;;;;5047896;28;20955;-56
2022/12/30 05:08:09;;;;;;;3.53;2.03;;;11.50;1.00;;;;;;5048158;28;20464;-58
2022/12/30 05:10:36;;;;;;;3.03;1.60;;;11.40;1.00;;;;;;5049462;28;20499;-58
2022/12/30 05:13:02;;;;;;;4.50;1.90;;;11.50;1.00;;;;;;5049779;28;20264;-63
2022/12/30 05:15:28;;;;;;;3.67;1.50;;;11.50;1.00;;;;;;5050161;28;20556;-55
2022/12/30 05:17:54;;;;;;;4.53;1.13;;;11.30;1.00;;;;;;5045757;28;20536;-55
2022/12/30 05:20:19;;;;;;;5.07;1.43;;;11.10;1.00;;;;;;5047248;28;20273;-56
2022/12/30 05:22:45;;;;;;;2.00;1.27;;;11.10;1.00;;;;;;5049744;28;20662;-57
2022/12/30 05:27:55;;;;;;;9.77;1.67;;;11.10;1.00;;;;;;5049081;28;20202;-56
2022/12/30 05:30:21;;;;;;;4.17;1.60;;;11.00;1.00;;;;;;5062151;28;20453;-56
2022/12/30 05:32:46;;;;;;;5.77;1.40;;;10.90;1.00;;;;;;5049181;28;20192;-56
2022/12/30 05:35:12;;;;;;;2.23;1.10;;;11.00;1.00;;;;;;5048741;28;20265;-57
2022/12/30 05:37:38;;;;;;;3.10;1.37;;;11.00;1.00;;;;;;5048542;28;20509;-55
2022/12/30 05:40:04;;;;;;;2.33;1.10;;;11.10;1.00;;;;;;5045915;28;20463;-57
2022/12/30 05:42:30;;;;;;;1.70;1.17;;;11.10;1.00;;;;;;5047705;28;20248;-56
2022/12/30 05:44:55;;;;;;;2.27;1.70;;;11.30;1.00;;;;;;5048191;28;20485;-57
2022/12/30 05:47:21;;;;;;;3.50;1.13;;;11.30;1.00;;;;;;5047195;28;20227;-56
2022/12/30 05:49:48;;;;;;;4.53;1.43;;;11.30;1.00;;;;;;5046467;28;20582;-56
2022/12/30 05:52:14;;;;;;;3.67;1.50;;;11.30;1.00;;;;;;5049071;28;20196;-56
2022/12/30 05:54:40;;;;;;;2.60;1.33;;;11.20;1.00;;;;;;5048329;28;20441;-56
2022/12/30 05:57:06;;;;;;;4.13;1.50;;;11.20;1.00;;;;;;5048516;28;20449;-57
2022/12/30 05:59:32;;;;;;;3.90;1.57;;;11.00;1.00;;;;;;5049448;28;20457;-56
2022/12/30 06:01:58;;;;;;;2.87;1.30;;;10.90;1.00;;;;;;5048956;28;20186;-57
2022/12/30 06:04:23;;;;;;;4.43;1.80;;;10.90;1.00;;;;;;5048226;28;20189;-56
2022/12/30 06:06:49;;;;;;;3.03;1.10;;;10.80;1.00;;;;;;5048141;28;20227;-57
2022/12/30 06:09:14;;;;;;;3.60;1.60;;;10.80;1.00;;;;;;5047208;28;20206;-57
2022/12/30 06:11:40;;;;;;;2.20;1.30;;;10.70;1.00;;;;;;5049832;28;20710;-55
2022/12/30 06:14:06;;;;;;;3.10;1.33;;;10.70;1.00;;;;;;5048899;28;20218;-56
2022/12/30 06:16:31;;;;;;;3.37;1.40;;;10.60;1.00;;;;;;5050066;28;20688;-56
2022/12/30 06:18:57;;;;;;;4.60;1.20;;;10.50;1.00;;;;;;5052585;28;20191;-57
2022/12/30 06:21:22;;;;;;;5.47;2.03;;;10.50;1.00;;;;;;5049461;28;20251;-56
2022/12/30 06:23:48;;;;;;;2.57;1.00;;;10.40;1.00;;;;;;5051300;28;20192;-57
2022/12/30 06:26:14;;;;;;;2.80;1.20;;;10.50;1.00;;;;;;5048645;28;20191;-56
2022/12/30 06:28:39;;;;;;;4.00;1.57;;;10.50;1.00;;;;;;5048503;28;20677;-55
2022/12/30 06:31:05;;;;;;;9.67;2.20;;;10.40;1.00;;;;;;5048272;28;20224;-56
2022/12/30 06:33:31;;;;;;;4.40;1.27;;;10.50;1.00;;;;;;5048390;28;20569;-56
2022/12/30 06:35:56;;;;;;;4.50;1.50;;;10.50;1.00;;;;;;5047012;28;20197;-56
2022/12/30 06:38:22;;;;;;;5.77;1.63;;;10.50;1.00;;;;;;5048366;28;20191;-56
2022/12/30 06:40:48;;;;;;;4.07;0.97;;;10.40;1.00;;;;;;5047950;28;20194;-56
2022/12/30 06:43:14;;;;;;;4.60;1.50;;;10.50;1.00;;;;;;5048055;28;20211;-55
2022/12/30 06:45:40;;;;;;;1.53;1.30;;;10.50;1.00;;;;;;5049225;28;20225;-57
2022/12/30 06:48:06;;;;;;;5.80;1.10;;;10.30;1.00;;;;;;5047913;28;20277;-57
2022/12/30 06:50:31;;;;;;;3.33;1.40;;;10.40;1.00;;;;;;5047712;28;20484;-57
2022/12/30 06:52:57;;;;;;;3.70;1.53;;;10.30;1.00;;;;;;5047211;28;20423;-56
2022/12/30 06:55:23;;;;;;;3.20;1.40;;;10.30;1.00;;;;;;5047966;28;20209;-56
2022/12/30 06:57:49;;;;;;;4.00;1.57;;;10.00;1.00;;;;;;5048469;28;20457;-56
2022/12/30 07:00:15;;;;;;;1.83;0.80;;;10.00;1.00;;;;;;5047257;28;20194;-56
2022/12/30 07:02:41;;;;;;;7.53;2.23;;;10.00;1.00;;;;;;5047357;28;20452;-56
2022/12/30 07:05:07;;;;;;;4.67;1.13;;;10.00;1.00;;;;;;5067777;28;20190;-56
2022/12/30 07:07:32;;;;;;;4.00;1.60;;;9.90;1.00;;;;;;5049406;28;20240;-57
2022/12/30 07:09:58;;;;;;;2.13;1.60;;;9.70;1.00;;;;;;5046413;28;20485;-57
2022/12/30 07:12:24;;;;;;;6.93;3.47;;;9.70;1.00;;;;;;5048233;28;20433;-56
2022/12/30 07:14:49;;;;;;;9.90;7.27;;;9.70;1.00;;;;;;5048022;28;20565;-56
2022/12/30 07:17:15;;;;;;;7.27;2.13;;;9.60;1.00;;;;;;5048249;28;20908;-55
2022/12/30 07:19:41;;;;;;;3.27;1.27;;;9.60;1.00;;;;;;5046534;28;20240;-57
2022/12/30 07:22:06;;;;;;;2.60;1.33;;;9.60;1.00;;;;;;5048332;28;20193;-56
2022/12/30 07:24:32;;;;;;;10.93;2.23;;;9.70;1.00;;;;;;5045277;28;20190;-55
2022/12/30 07:26:57;;;;;;;2.50;1.33;;;9.60;1.00;;;;;;5048171;28;20635;-56
2022/12/30 07:29:23;;;;;;;6.07;1.63;;;9.80;1.00;;;;;;5049346;28;20191;-55
2022/12/30 07:31:49;;;;;;;3.93;1.07;;;9.80;1.00;;;;;;5048283;28;20198;-56
2022/12/30 07:34:14;;;;;;;9.10;1.90;;;9.80;1.00;;;;;;5046976;28;20191;-56
2022/12/30 07:36:40;;;;;;;4.57;1.97;;;9.80;1.00;;;;;;5048379;28;20273;-56
2022/12/30 07:39:06;;;;;;;5.60;1.80;;;9.80;1.00;;;;;;5047277;28;20191;-56
2022/12/30 07:41:33;;;;;;;3.60;1.53;;;9.80;1.00;;;;;;5047846;28;20190;-57
2022/12/30 07:43:58;;;;;;;1.87;1.00;;;9.70;1.00;;;;;;5046888;28;20537;-56
2022/12/30 07:46:24;;;;;;;2.97;1.50;;;9.70;1.00;;;;;;5047655;28;20534;-56
2022/12/30 07:48:50;;;;;;;3.33;1.30;;;9.60;1.00;;;;;;5047822;28;20288;-55
2022/12/30 07:51:17;;;;;;;2.07;1.23;;;9.70;1.00;;;;;;5052061;28;20478;-56
2022/12/30 07:53:43;;;;;;;6.57;1.40;;;9.70;1.00;;;;;;5053102;28;20627;-57
2022/12/30 07:56:12;;;;;;;3.70;1.30;;;9.70;1.00;;;;;;5046940;28;20894;-56
2022/12/30 07:58:38;;;;;;;3.17;1.47;;;9.60;1.00;;;;;;5048409;28;21006;-56
2022/12/30 08:01:05;;;;;;;3.60;2.00;;;9.70;1.00;;;;;;5046742;28;20932;-56
2022/12/30 08:03:31;;;;;;;4.63;1.53;;;9.70;1.00;;;;;;5046843;28;20452;-57
2022/12/30 08:06:06;;;;;;;3.87;1.30;;;9.60;1.00;;;;;;5047281;28;20453;-56
2022/12/30 08:08:32;;;;;;;5.90;1.80;;;9.50;1.00;;;;;;5047691;28;20492;-56
2022/12/30 08:10:59;;;;;;;5.17;1.30;;;9.70;1.00;;;;;;5046841;28;20913;-57
2022/12/30 08:13:25;;;;;;;7.47;1.77;;;9.70;1.00;;;;;;5047774;28;20478;-56
2022/12/30 08:15:50;;;;;;;6.17;1.40;;;9.60;1.00;;;;;;5046167;28;20531;-56
2022/12/30 08:18:16;;;;;;;2.83;1.50;;;9.70;1.00;;;;;;5046163;28;20189;-56
2022/12/30 08:20:42;;;;;;;5.57;1.83;;;9.70;1.00;;;;;;5047629;28;20194;-56
2022/12/30 08:23:07;;;;;;;5.27;1.97;;;9.60;1.00;;;;;;5047607;28;20191;-56
2022/12/30 08:25:34;;;;;;;4.00;1.40;;;9.70;1.00;;;;;;5048704;28;20774;-57
2022/12/30 08:27:59;;;;;;;4.23;1.50;;;9.60;1.00;;;;;;5051062;28;20857;-56
2022/12/30 08:30:26;;;;;;;4.30;1.47;;;9.50;1.00;;;;;;5049522;28;20499;-56
2022/12/30 08:32:51;;;;;;;3.80;1.93;;;9.40;1.00;;;;;;5051881;28;20276;-56
2022/12/30 08:35:17;;;;;;;8.23;3.40;;;9.60;1.00;;;;;;5050234;28;20444;-57
2022/12/30 08:37:43;;;;;;;10.83;3.53;;;9.60;1.00;;;;;;5051507;28;20194;-56
2022/12/30 08:40:09;;;;;;;6.50;1.80;;;9.60;1.00;;;;;;5050338;28;20197;-56
2022/12/30 08:42:35;;;;;;;3.30;1.57;;;9.60;1.00;;;;;;5050675;28;20282;-56
2022/12/30 08:45:01;;;;;;;4.00;2.00;;;9.60;1.00;;;;;;5050856;28;20540;-57
2022/12/30 08:47:27;;;;;;;6.73;2.13;;;9.70;1.00;;;;;;5051583;28;21023;-56
2022/12/30 08:49:53;;;;;;;4.23;2.00;;;9.90;1.00;;;;;;5050614;28;20558;-57
2022/12/30 08:52:18;;;;;;;6.57;2.10;;;9.80;1.00;;;;;;5051801;28;20213;-57
2022/12/30 08:54:44;;;;;;;2.27;1.53;;;9.80;1.00;;;;;;5050736;28;20195;-57
2022/12/30 08:57:11;;;;;;;4.20;1.87;;;9.80;1.00;;;;;;5050483;28;20613;-56
2022/12/30 08:59:38;;;;;;;1.60;1.00;;;10.00;1.00;;;;;;5051833;28;20203;-56
2022/12/30 09:02:04;;;;;;;4.03;1.40;;;10.10;1.00;;;;;;5049835;28;20444;-56
2022/12/30 09:04:29;;;;;;;6.47;1.60;;;10.10;1.00;;;;;;5050456;28;20457;-56
2022/12/30 09:06:55;;;;;;;3.43;1.30;;;10.10;1.00;;;;;;5052028;28;20665;-57
2022/12/30 09:09:21;;;;;;;7.50;2.83;;;10.10;1.00;;;;;;5059857;28;20286;-56
2022/12/30 09:11:47;;;;;;;7.03;1.80;;;10.10;1.00;;;;;;5049430;28;20236;-57
2022/12/30 09:14:15;;;;;;;3.30;1.87;;;10.10;1.00;;;;;;5048973;28;21074;-57
2022/12/30 09:16:41;;;;;;;3.70;1.60;;;10.10;1.00;;;;;;5050509;28;20835;-58
2022/12/30 09:19:06;;;;;;;5.67;2.63;;;10.10;1.00;;;;;;5049970;28;20442;-57
2022/12/30 09:21:32;;;;;;;8.17;2.73;;;10.20;1.00;;;;;;5050971;28;20555;-56
2022/12/30 09:23:58;;;;;;;7.40;2.00;;;10.30;1.00;;;;;;5049112;28;20190;-55
2022/12/30 09:26:26;;;;;;;4.03;1.90;;;10.30;1.00;;;;;;5049301;28;20184;-57
2022/12/30 09:28:52;;;;;;;10.23;2.00;;;10.50;1.00;;;;;;5060597;28;20990;-57
2022/12/30 09:31:18;;;;;;;7.57;1.87;;;10.50;1.00;;;;;;5057962;28;20472;-56
2022/12/30 09:33:44;;;;;;;3.23;1.30;;;10.60;1.00;;;;;;5050061;28;20420;-56
2022/12/30 09:36:10;;;;;;;4.50;1.60;;;10.80;1.00;;;;;;5047443;28;21077;-57
2022/12/30 09:38:36;;;;;;;7.20;2.73;;;10.90;1.00;;;;;;5049081;28;20241;-57
2022/12/30 09:41:08;;;;;;;5.40;2.27;;;10.90;1.00;;;;;;5049481;28;20454;-56
2022/12/30 09:43:48;;;;;;;3.17;1.60;;;11.00;1.00;;;;;;5053739;28;20429;-56
2022/12/30 09:46:30;;;;;;;3.57;1.07;;;11.10;1.00;;;;;;5050204;28;20489;-56
2022/12/30 09:49:01;;;;;;;4.37;1.67;;;11.20;1.00;;;;;;5048053;28;20449;-57
2022/12/30 09:51:33;;;;;;;5.77;1.50;;;11.10;1.00;;;;;;5049517;28;20477;-57
2022/12/30 09:54:09;;;;;;;5.40;1.70;;;11.20;1.00;;;;;;5047752;28;20441;-57
2022/12/30 09:56:40;;;;;;;6.70;1.40;;;11.30;1.00;;;;;;5048419;28;20476;-57
2022/12/30 09:59:17;;;;;;;6.53;1.83;;;11.40;1.00;;;;;;5049183;28;20931;-56
2022/12/30 10:01:45;;;;;;;6.03;2.50;;;11.50;1.00;;;;;;5049116;28;20409;-56
2022/12/30 10:04:19;;;;;;;5.30;1.80;;;11.60;1.00;;;;;;5047526;28;20436;-56
2022/12/30 10:07:13;;;;;;;7.03;3.40;;;11.60;1.00;;;;;;5048818;28;20460;-56
2022/12/30 10:09:46;;;;;;;7.40;1.80;;;11.60;1.00;;;;;;5047197;28;20541;-57
2022/12/30 10:12:23;;;;;;;5.10;2.40;;;11.60;1.00;;;;;;5048179;28;20920;-57
2022/12/30 10:15:06;;;;;;;4.97;2.50;;;11.60;1.00;;;;;;5047509;28;20459;-56
2022/12/30 10:18:03;;;;;;;4.83;2.07;;;11.70;1.00;;;;;;5046641;28;20510;-56
2022/12/30 10:20:47;;;;;;;4.93;1.40;;;11.60;1.00;;;;;;5048896;28;20463;-57
2022/12/30 10:23:36;;;;;;;7.80;4.50;;;11.60;1.00;;;;;;5049520;28;20437;-56
2022/12/30 10:26:11;;;;;;;2.20;1.60;;;11.70;1.00;;;;;;5047757;28;20446;-57
2022/12/30 10:28:41;;;;;;;3.27;1.40;;;11.80;1.00;;;;;;5049805;28;20544;-56
2022/12/30 10:31:23;;;;;;;4.40;2.10;;;11.90;1.00;;;;;;5047940;28;20826;-57
2022/12/30 10:33:51;;;;;;;3.93;2.00;;;11.80;1.00;;;;;;5048689;28;20506;-57
2022/12/30 10:36:24;;;;;;;8.30;1.60;;;11.80;1.00;;;;;;5047107;28;20950;-58
2022/12/30 10:38:58;;;;;;;5.10;2.50;;;11.70;1.00;;;;;;5048440;28;20506;-57
2022/12/30 10:41:35;;;;;;;4.13;2.10;;;11.90;1.00;;;;;;5048781;28;20412;-56
2022/12/30 10:44:04;;;;;;;4.83;3.00;;;12.10;1.00;;;;;;5045559;28;20433;-56
2022/12/30 10:46:50;;;;;;;4.07;2.03;;;12.30;1.00;;;;;;5048470;28;20438;-56
2022/12/30 10:49:44;;;;;;;5.43;1.57;;;12.20;1.00;;;;;;5049069;28;20446;-57
2022/12/30 10:52:12;;;;;;;5.20;1.77;;;12.10;1.00;;;;;;5048810;28;20445;-56
2022/12/30 10:54:37;;;;;;;2.47;1.70;;;12.10;1.00;;;;;;5048469;28;20428;-57
2022/12/30 10:57:03;;;;;;;3.20;1.33;;;12.30;1.00;;;;;;5051776;28;20448;-57
2022/12/30 10:59:29;;;;;;;4.33;1.80;;;12.40;1.00;;;;;;5051960;28;20195;-55
2022/12/30 11:02:21;;;;;;;3.47;1.27;;;12.30;1.00;;;;;;5047622;28;20539;-57
2022/12/30 11:04:47;;;;;;;4.50;1.50;;;12.40;1.00;;;;;;5049921;28;20468;-57
2022/12/30 11:07:15;;;;;;;11.50;2.07;;;12.30;1.00;;;;;;5049254;28;20460;-56
2022/12/30 11:09:43;;;;;;;5.13;1.40;;;12.40;1.00;;;;;;5047184;28;20427;-57
2022/12/30 11:15:24;;;;;;;3.57;1.57;;;12.60;1.00;;;;;;5049103;28;20421;-56
2022/12/30 11:17:53;;;;;;;4.77;1.70;;;12.70;1.00;;;;;;5051686;28;20419;-56
2022/12/30 11:20:36;;;;;;;6.47;1.60;;;12.60;1.00;;;;;;5048470;28;21047;-57
2022/12/30 11:23:20;;;;;;;4.10;3.00;;;12.50;1.00;;;;;;5048902;28;20421;-57
2022/12/30 11:25:46;;;;;;;1.77;1.57;;;12.60;1.00;;;;;;5049861;28;20436;-57
2022/12/30 11:28:25;;;;;;;3.50;1.27;;;12.80;1.00;;;;;;5049001;28;20816;-57
2022/12/30 11:30:50;;;;;;;3.20;1.10;;;12.90;1.00;;;;;;5050208;28;20527;-56
2022/12/30 11:33:24;;;;;;;3.90;1.20;;;13.10;1.00;;;;;;5050626;28;20440;-57
2022/12/30 11:35:51;;;;;;;5.17;1.80;;;13.00;1.00;;;;;;5047650;28;20617;-56
2022/12/30 11:38:38;;;;;;;3.27;1.60;;;13.00;1.00;;;;;;5048622;28;20808;-58
2022/12/30 11:41:27;;;;;;;1.93;1.30;;;13.00;1.00;;;;;;5052811;28;20464;-57
2022/12/30 11:43:58;;;;;;;1.70;1.60;;;12.90;1.00;;;;;;5065692;28;20452;-57
2022/12/30 11:46:28;;;;;;;4.20;1.57;;;13.00;1.00;;;;;;5047123;28;20534;-56
2022/12/30 11:49:18;;;;;;;2.80;1.60;;;13.00;1.00;;;;;;5048224;28;20464;-57
2022/12/30 11:51:48;;;;;;;2.03;1.07;;;13.00;1.00;;;;;;5048306;28;20477;-56
2022/12/30 11:54:17;;;;;;;7.17;3.07;;;12.90;1.00;;;;;;5045504;28;20428;-57
2022/12/30 11:56:53;;;;;;;4.23;1.43;;;12.90;1.00;;;;;;5046056;28;20427;-55
2022/12/30 11:59:31;;;;;;;3.23;1.87;;;12.80;1.00;;;;;;5049765;28;20438;-55
2022/12/30 12:02:00;;;;;;;3.17;1.50;;;12.80;1.00;;;;;;5052317;28;20445;-55
2022/12/30 12:04:33;;;;;;;2.50;1.23;;;12.80;1.00;;;;;;5052466;28;20412;-55
2022/12/30 12:06:59;;;;;;;3.20;1.43;;;12.80;1.00;;;;;;5052212;28;20977;-55
2022/12/30 12:09:36;;;;;;;3.10;1.13;;;12.70;1.00;;;;;;5048791;28;20545;-55
2022/12/30 12:12:07;;;;;;;1.90;1.40;;;12.70;1.00;;;;;;5054212;28;20186;-55
2022/12/30 12:15:05;;;;;;;4.60;1.90;;;12.60;1.00;;;;;;5051975;28;20409;-56
2022/12/30 12:17:39;;;;;;;4.40;1.27;;;12.70;1.00;;;;;;5034980;28;20539;-55
2022/12/30 12:20:46;;;;;;;2.53;1.37;;;12.80;1.00;;;;;;5052294;28;20427;-55
2022/12/30 12:23:39;;;;;;;3.03;1.20;;;12.90;1.00;;;;;;5029728;28;20777;-55
2022/12/30 12:26:19;;;;;;;2.10;1.47;;;13.00;1.00;;;;;;5050962;28;20570;-56
2022/12/30 12:28:46;;;;;;;4.70;1.50;;;13.00;1.00;;;;;;5049924;28;20432;-57
2022/12/30 12:31:30;;;;;;;5.40;1.63;;;13.00;1.00;;;;;;5051717;28;20472;-56
2022/12/30 12:34:04;;;;;;;2.30;1.10;;;13.20;1.00;;;;;;5050466;28;20468;-56
2022/12/30 12:36:48;;;;;;;4.30;1.50;;;13.20;1.00;;;;;;5051109;28;20400;-55
2022/12/30 12:39:44;;;;;;;3.47;2.13;;;13.20;1.00;;;;;;5046128;28;20424;-56
2022/12/30 12:42:15;;;;;;;5.77;2.47;;;13.10;1.00;;;;;;5051049;28;20452;-56
2022/12/30 12:45:09;;;;;;;4.40;2.87;;;13.00;1.00;;;;;;5049526;28;20790;-56
2022/12/30 12:47:55;;;;;;;7.20;2.30;;;13.10;1.00;;;;;;5051361;28;20439;-57
2022/12/30 12:50:44;;;;;;;5.93;2.30;;;12.90;1.00;;;;;;5051005;28;20532;-58
2022/12/30 12:53:28;;;;;;;6.97;1.67;;;12.90;1.00;;;;;;5050981;28;20787;-56
2022/12/30 12:56:00;;;;;;;3.83;1.87;;;12.80;1.00;;;;;;5051558;28;20496;-55
2022/12/30 12:58:39;;;;;;;3.00;1.90;;;12.70;1.00;;;;;;5049034;28;20424;-56
2022/12/30 13:01:18;;;;;;;5.23;2.33;;;12.70;1.00;;;;;;5050868;28;20468;-54
2022/12/30 13:04:06;;;;;;;2.70;1.80;;;12.50;1.00;;;;;;5051451;28;20445;-56
2022/12/30 13:06:45;;;;;;;11.67;2.80;;;12.40;1.00;;;;;;5051640;28;20413;-56
2022/12/30 13:09:34;;;;;;;5.30;1.70;;;12.40;1.00;;;;;;5050925;28;20407;-57
2022/12/30 13:12:16;;;;;;;6.53;1.77;;;12.40;1.00;;;;;;5049939;28;20478;-56
2022/12/30 13:14:49;;;;;;;5.87;2.23;;;12.30;1.00;;;;;;5050337;28;20416;-56
2022/12/30 13:17:28;;;;;;;4.60;2.83;;;12.30;1.00;;;;;;5055405;28;20954;-56
2022/12/30 13:19:58;;;;;;;4.47;2.50;;;12.30;1.00;;;;;;5049681;28;20433;-56
2022/12/30 13:22:30;;;;;;;7.90;2.40;;;12.30;1.00;;;;;;5050640;28;20438;-57
2022/12/30 13:24:57;;;;;;;5.17;2.77;;;12.40;1.00;;;;;;5050573;28;20853;-56
2022/12/30 13:27:32;;;;;;;3.73;2.60;;;12.30;1.00;;;;;;5051036;28;20441;-57
2022/12/30 13:29:59;;;;;;;5.23;4.13;;;12.30;1.00;;;;;;5050681;28;20839;-56
2022/12/30 13:32:49;;;;;;;7.57;4.40;;;12.20;1.00;;;;;;5052961;28;20475;-57
2022/12/30 13:35:17;;;;;;;5.37;4.27;;;12.20;1.00;;;;;;5046937;28;20770;-57
2022/12/30 13:38:09;;;;;;;5.20;4.53;;;12.20;1.00;;;;;;5050848;28;20451;-56
2022/12/30 13:40:48;;;;;;;7.47;4.40;;;12.30;1.00;;;;;;5047022;28;20445;-57
2022/12/30 13:43:32;;;;;;;7.07;5.07;;;12.20;1.00;;;;;;5049656;28;20854;-55
2022/12/30 13:45:58;;;;;;;6.67;4.60;;;12.10;1.00;;;;;;5050558;28;20993;-56
2022/12/30 13:48:25;;;;;;;7.60;5.60;;;12.20;1.00;;;;;;5050146;28;20495;-56
2022/12/30 13:51:06;;;;;;;6.43;4.53;;;12.10;1.00;;;;;;5048733;28;20469;-57
2022/12/30 13:53:46;;;;;;;6.20;4.00;;;12.00;1.00;;;;;;5048985;28;20971;-56
2022/12/30 13:56:30;;;;;;;5.13;3.90;;;11.90;1.00;;;;;;5046406;28;20443;-56
2022/12/30 13:58:56;;;;;;;5.47;3.50;;;11.90;1.00;;;;;;5049653;28;20442;-56
2022/12/30 14:01:36;;;;;;;4.60;3.83;;;11.90;1.00;;;;;;5048360;28;20838;-57
2022/12/30 14:04:10;;;;;;;5.77;3.17;;;11.80;1.00;;;;;;5047530;28;20293;-56
2022/12/30 14:06:51;;;;;;;3.73;3.10;;;11.70;1.00;;;;;;5051331;28;20445;-57
2022/12/30 14:09:26;;;;;;;6.93;3.67;;;11.60;1.00;;;;;;5048882;28;20449;-56